Time;durP1;ratioP1;P1;durP2;ratioP2;P2;SDS_P1;SDS_P2;PMS_P1;PMS_P2;Temp;Humidity;BMP_temperature;BMP_pressure;BME280_temperature;BME280_humidity;BME280_pressure;Samples;Min_cycle;Max_cycle;Signal;HPM_P1;HPM_P2
2024/04/24 00:00:39;;;;;;;14.25;2.80;;;6.70;99.90;;;;;;6333918;22;20003;-90
2024/04/24 00:03:05;;;;;;;12.40;2.75;;;6.70;99.90;;;;;;6332361;22;19987;-90
2024/04/24 00:05:31;;;;;;;22.05;2.78;;;6.60;99.90;;;;;;6332475;22;20430;-91
2024/04/24 00:07:57;;;;;;;12.48;2.13;;;6.70;99.90;;;;;;6333464;22;20126;-90
2024/04/24 00:10:23;;;;;;;10.65;2.63;;;6.60;99.90;;;;;;6332937;22;19991;-89
2024/04/24 00:12:48;;;;;;;18.05;2.40;;;6.60;99.90;;;;;;6333943;22;19991;-90
2024/04/24 00:15:14;;;;;;;16.02;2.17;;;6.60;99.90;;;;;;6333074;22;20002;-89
2024/04/24 00:17:40;;;;;;;19.85;2.42;;;6.60;99.90;;;;;;6333482;22;19995;-90
2024/04/24 00:20:06;;;;;;;13.07;2.45;;;6.60;99.90;;;;;;6333597;22;20024;-90
2024/04/24 00:22:31;;;;;;;19.88;2.63;;;6.60;99.90;;;;;;6332380;22;19991;-91
2024/04/24 00:24:57;;;;;;;16.50;2.47;;;6.50;99.90;;;;;;6331725;22;19991;-91
2024/04/24 00:27:23;;;;;;;8.93;2.20;;;6.50;99.90;;;;;;6331494;22;19995;-91
2024/04/24 00:29:48;;;;;;;12.27;2.58;;;6.50;99.90;;;;;;6331946;22;19991;-90
2024/04/24 00:32:14;;;;;;;17.52;2.58;;;6.50;99.90;;;;;;6332104;22;19991;-90
2024/04/24 00:34:39;;;;;;;9.65;2.60;;;6.50;99.90;;;;;;6331784;22;19996;-90
2024/04/24 00:37:05;;;;;;;7.78;2.08;;;6.50;99.90;;;;;;6332553;22;20454;-90
2024/04/24 00:39:31;;;;;;;7.90;1.85;;;6.50;99.90;;;;;;6331687;22;20003;-90
2024/04/24 00:41:56;;;;;;;16.92;2.35;;;6.50;99.90;;;;;;6332674;22;20010;-91
2024/04/24 00:44:22;;;;;;;15.52;3.40;;;6.50;99.90;;;;;;6333202;22;19995;-90
2024/04/24 00:46:49;;;;;;;11.77;2.63;;;6.50;99.90;;;;;;6333112;22;20356;-90
2024/04/24 00:49:16;;;;;;;17.42;3.30;;;6.40;99.90;;;;;;6333682;22;20002;-89
2024/04/24 00:51:43;;;;;;;16.48;2.05;;;6.50;99.90;;;;;;6333799;22;19995;-90
2024/04/24 00:54:09;;;;;;;19.33;3.08;;;6.50;99.90;;;;;;6334360;22;19991;-91
2024/04/24 00:56:35;;;;;;;16.55;2.42;;;6.40;99.90;;;;;;6334079;22;19995;-90
2024/04/24 00:59:01;;;;;;;17.33;2.38;;;6.50;99.90;;;;;;6335369;22;20006;-89
2024/04/24 01:01:27;;;;;;;13.45;2.08;;;6.40;99.90;;;;;;6335059;22;20070;-91
2024/04/24 01:03:52;;;;;;;19.30;2.72;;;6.40;99.90;;;;;;6335202;22;20003;-88
2024/04/24 01:06:18;;;;;;;12.68;2.85;;;6.40;99.90;;;;;;6334437;22;19995;-89
2024/04/24 01:08:44;;;;;;;22.73;3.40;;;6.40;99.90;;;;;;6333988;22;20002;-89
2024/04/24 01:11:10;;;;;;;14.10;3.90;;;6.40;99.90;;;;;;6334874;22;19991;-90
2024/04/24 01:13:36;;;;;;;18.08;2.50;;;6.30;99.90;;;;;;6334537;22;20002;-90
2024/04/24 01:16:19;;;;;;;13.73;2.40;;;6.30;99.90;;;;;;6334892;22;20003;-89
2024/04/24 01:18:51;;;;;;;12.02;2.20;;;6.30;99.90;;;;;;6334289;22;20009;-90
2024/04/24 01:21:18;;;;;;;20.70;2.50;;;6.30;99.90;;;;;;6333512;22;20022;-89
2024/04/24 01:24:15;;;;;;;11.55;2.25;;;6.30;99.90;;;;;;6334165;22;20007;-89
2024/04/24 01:26:48;;;;;;;20.42;3.63;;;6.20;99.90;;;;;;6332857;22;19991;-90
2024/04/24 01:29:15;;;;;;;15.10;2.28;;;6.20;99.90;;;;;;6333386;22;20011;-90
2024/04/24 01:31:41;;;;;;;15.52;2.95;;;6.20;99.90;;;;;;6336197;22;20002;-90
2024/04/24 01:34:07;;;;;;;14.18;2.45;;;6.20;99.90;;;;;;6335428;22;19995;-89
2024/04/24 01:36:33;;;;;;;20.48;2.88;;;6.10;99.90;;;;;;6333697;22;19995;-90
2024/04/24 01:38:59;;;;;;;19.27;3.28;;;6.10;99.90;;;;;;6333908;22;20304;-91
2024/04/24 01:41:25;;;;;;;12.98;2.25;;;6.10;99.90;;;;;;6334074;22;19995;-90
2024/04/24 01:43:50;;;;;;;18.65;3.35;;;6.00;99.90;;;;;;6334750;22;20010;-90
2024/04/24 01:46:16;;;;;;;14.85;2.03;;;6.00;99.90;;;;;;6334917;22;20007;-91
2024/04/24 01:48:42;;;;;;;24.67;2.50;;;6.00;99.90;;;;;;6335067;22;19998;-90
2024/04/24 01:51:08;;;;;;;22.10;3.33;;;6.00;99.90;;;;;;6336128;22;20018;-91
2024/04/24 01:53:33;;;;;;;22.85;3.10;;;5.90;99.90;;;;;;6334421;22;19996;-90
2024/04/24 01:55:59;;;;;;;18.60;2.30;;;5.90;99.90;;;;;;6334201;22;20042;-90
2024/04/24 01:58:24;;;;;;;15.32;2.20;;;5.90;99.90;;;;;;6335593;22;20003;-89
2024/04/24 02:00:53;;;;;;;18.25;2.47;;;5.90;99.90;;;;;;6334784;22;19992;-89
2024/04/24 02:03:19;;;;;;;17.83;2.45;;;5.80;99.90;;;;;;6333613;22;19999;-89
2024/04/24 02:05:45;;;;;;;11.55;1.90;;;5.80;99.90;;;;;;6334693;22;20310;-89
2024/04/24 02:08:10;;;;;;;14.70;2.22;;;5.80;99.90;;;;;;6333925;22;20007;-89
2024/04/24 02:10:36;;;;;;;18.45;3.13;;;5.80;99.90;;;;;;6335690;22;20010;-90
2024/04/24 02:13:02;;;;;;;13.85;1.90;;;5.70;99.90;;;;;;6334226;22;20430;-89
2024/04/24 02:15:27;;;;;;;14.15;2.17;;;5.70;99.90;;;;;;6335087;22;20424;-90
2024/04/24 02:17:53;;;;;;;18.58;2.45;;;5.70;99.90;;;;;;6335845;22;20008;-89
2024/04/24 02:20:19;;;;;;;18.05;2.65;;;5.70;99.90;;;;;;6335190;22;20010;-90
2024/04/24 02:22:44;;;;;;;9.73;1.80;;;5.60;99.90;;;;;;6336010;22;20002;-90
2024/04/24 02:27:55;;;;;;;16.52;1.85;;;5.50;99.90;;;;;;6377544;22;20317;-91
2024/04/24 02:30:20;;;;;;;17.35;2.60;;;5.50;99.90;;;;;;6334144;22;20024;-89
2024/04/24 02:32:46;;;;;;;20.13;3.17;;;5.50;99.90;;;;;;6334372;22;20438;-90
2024/04/24 02:35:12;;;;;;;11.38;2.70;;;5.40;99.90;;;;;;6334587;22;19995;-89
2024/04/24 02:37:38;;;;;;;9.73;2.15;;;5.40;99.90;;;;;;6333824;22;19991;-87
2024/04/24 02:40:04;;;;;;;21.83;2.47;;;5.30;99.90;;;;;;6333694;22;20006;-89
2024/04/24 02:42:30;;;;;;;8.63;2.00;;;5.30;99.90;;;;;;6334276;22;20010;-89
2024/04/24 02:44:55;;;;;;;19.75;2.28;;;5.30;99.90;;;;;;6333207;22;19999;-89
2024/04/24 02:47:21;;;;;;;11.80;2.22;;;5.30;99.90;;;;;;6333988;22;20724;-89
2024/04/24 02:49:47;;;;;;;13.20;2.08;;;5.20;99.90;;;;;;6333436;22;19999;-89
2024/04/24 02:52:12;;;;;;;15.20;2.80;;;5.20;99.90;;;;;;6334150;22;20010;-89
2024/04/24 02:54:38;;;;;;;10.90;1.60;;;5.10;99.90;;;;;;6333667;22;19999;-89
2024/04/24 02:57:04;;;;;;;11.88;2.00;;;5.10;99.90;;;;;;6335007;22;19995;-89
2024/04/24 02:59:29;;;;;;;7.93;1.70;;;5.00;99.90;;;;;;6334214;22;20007;-90
2024/04/24 03:01:55;;;;;;;10.80;2.03;;;5.00;99.90;;;;;;6333909;22;20002;-91
2024/04/24 03:04:21;;;;;;;11.70;2.22;;;4.90;99.90;;;;;;6333808;22;20114;-92
2024/04/24 03:06:46;;;;;;;15.75;2.15;;;4.90;99.90;;;;;;6335152;22;20002;-89
2024/04/24 03:09:12;;;;;;;11.10;1.88;;;4.80;99.90;;;;;;6333805;22;19995;-90
2024/04/24 03:11:38;;;;;;;9.65;3.05;;;4.80;99.90;;;;;;6334278;22;20078;-89
2024/04/24 03:14:04;;;;;;;14.38;2.00;;;4.80;99.90;;;;;;6334099;22;19995;-90
2024/04/24 03:16:31;;;;;;;10.38;1.73;;;4.80;99.90;;;;;;6333545;22;20318;-89
2024/04/24 03:18:56;;;;;;;12.50;2.38;;;4.80;99.90;;;;;;6333156;22;19995;-92
2024/04/24 03:21:22;;;;;;;10.15;2.20;;;4.70;99.90;;;;;;6334132;22;20010;-90
2024/04/24 03:23:48;;;;;;;13.48;1.90;;;4.70;99.90;;;;;;6333903;22;19995;-91
2024/04/24 03:26:14;;;;;;;11.98;3.15;;;4.60;99.90;;;;;;6333498;22;20293;-92
2024/04/24 03:28:40;;;;;;;8.75;1.88;;;4.60;99.90;;;;;;6334131;22;20079;-92
2024/04/24 03:31:05;;;;;;;16.85;2.83;;;4.50;99.90;;;;;;6335096;22;19999;-91
2024/04/24 03:33:31;;;;;;;11.43;2.25;;;4.50;99.90;;;;;;6334965;22;20481;-90
2024/04/24 03:35:57;;;;;;;9.80;1.92;;;4.50;99.90;;;;;;6334083;22;20447;-90
2024/04/24 03:38:22;;;;;;;15.57;1.90;;;4.40;99.90;;;;;;6333294;22;20429;-88
2024/04/24 03:40:48;;;;;;;7.68;1.52;;;4.40;99.90;;;;;;6334424;22;20010;-89
2024/04/24 03:43:14;;;;;;;11.88;1.98;;;4.30;99.90;;;;;;6334892;22;20010;-92
2024/04/24 03:45:39;;;;;;;11.35;1.40;;;4.30;99.90;;;;;;6334543;22;19995;-91
2024/04/24 03:48:05;;;;;;;10.80;1.98;;;4.30;99.90;;;;;;6334304;22;19999;-89
2024/04/24 03:50:31;;;;;;;11.02;1.90;;;4.30;99.90;;;;;;6333591;22;20014;-91
2024/04/24 03:52:57;;;;;;;16.35;3.17;;;4.30;99.90;;;;;;6333581;22;19991;-90
2024/04/24 03:55:22;;;;;;;11.48;1.90;;;4.20;99.90;;;;;;6333194;22;20330;-91
2024/04/24 03:57:48;;;;;;;7.28;1.40;;;4.20;99.90;;;;;;6333432;22;20298;-90
2024/04/24 04:00:14;;;;;;;11.43;1.50;;;4.20;99.90;;;;;;6333037;22;20007;-91
2024/04/24 04:02:39;;;;;;;15.55;2.22;;;4.20;99.90;;;;;;6332466;22;20010;-91
2024/04/24 04:05:05;;;;;;;8.50;1.98;;;4.10;99.90;;;;;;6333368;22;19999;-92
2024/04/24 04:07:31;;;;;;;20.38;1.88;;;4.10;99.90;;;;;;6377735;22;20012;-91
2024/04/24 04:09:57;;;;;;;14.00;1.30;;;4.10;99.90;;;;;;6345060;22;20011;-91
2024/04/24 04:12:23;;;;;;;7.10;1.10;;;4.10;99.90;;;;;;6344548;22;19991;-89
2024/04/24 04:14:48;;;;;;;11.90;1.70;;;4.00;99.90;;;;;;6346117;22;19995;-90
2024/04/24 04:17:14;;;;;;;14.70;1.75;;;4.00;99.90;;;;;;6346529;22;20010;-91
2024/04/24 04:19:39;;;;;;;13.48;1.70;;;4.00;99.90;;;;;;6347018;22;19998;-90
2024/04/24 04:22:08;;;;;;;9.15;2.10;;;3.90;99.90;;;;;;6388928;22;20002;-91
2024/04/24 04:24:34;;;;;;;9.25;2.08;;;3.90;99.90;;;;;;6349974;22;20070;-90
2024/04/24 04:26:59;;;;;;;12.10;1.80;;;3.90;99.90;;;;;;6348410;22;20007;-91
2024/04/24 04:29:25;;;;;;;10.80;1.85;;;3.80;99.90;;;;;;6349252;22;20007;-91
2024/04/24 04:31:51;;;;;;;11.20;2.47;;;3.80;99.90;;;;;;6349610;22;20003;-91
2024/04/24 04:34:16;;;;;;;7.13;1.52;;;3.80;99.90;;;;;;6349227;22;19996;-89
2024/04/24 04:36:42;;;;;;;11.98;1.13;;;3.80;99.90;;;;;;6350260;22;19995;-89
2024/04/24 04:39:07;;;;;;;7.97;1.42;;;3.80;99.90;;;;;;6348429;22;20006;-90
2024/04/24 04:41:33;;;;;;;7.00;1.05;;;3.70;99.90;;;;;;6347732;22;19995;-89
2024/04/24 04:43:59;;;;;;;10.00;1.30;;;3.70;99.90;;;;;;6353527;22;20001;-90
2024/04/24 04:46:24;;;;;;;11.05;1.60;;;3.70;99.90;;;;;;6359307;22;20003;-89
2024/04/24 04:48:50;;;;;;;14.32;1.92;;;3.70;99.90;;;;;;6356292;22;20076;-89
2024/04/24 04:51:16;;;;;;;14.45;1.58;;;3.70;99.90;;;;;;6334343;22;20087;-91
2024/04/24 04:53:41;;;;;;;10.43;1.85;;;3.70;99.90;;;;;;6336395;22;20070;-89
2024/04/24 04:56:07;;;;;;;14.57;1.60;;;3.70;99.90;;;;;;6336007;22;20014;-90
2024/04/24 04:58:33;;;;;;;4.20;1.48;;;3.60;99.90;;;;;;6334835;22;20003;-91
2024/04/24 05:00:58;;;;;;;8.73;2.38;;;3.60;99.90;;;;;;6335483;22;20351;-90
2024/04/24 05:03:24;;;;;;;10.00;1.63;;;3.60;99.90;;;;;;6335286;22;20010;-90
2024/04/24 05:05:50;;;;;;;16.25;1.80;;;3.60;99.90;;;;;;6335634;22;20429;-89
2024/04/24 05:08:16;;;;;;;6.57;1.60;;;3.60;99.90;;;;;;6335761;22;20003;-90
2024/04/24 05:10:41;;;;;;;9.40;1.50;;;3.60;99.90;;;;;;6335557;22;20010;-91
2024/04/24 05:13:11;;;;;;;9.73;1.77;;;3.50;99.90;;;;;;6339305;22;20007;-89
2024/04/24 05:15:37;;;;;;;16.03;2.80;;;3.50;99.90;;;;;;6338561;22;20003;-89
2024/04/24 05:18:06;;;;;;;9.88;2.25;;;3.50;99.90;;;;;;6338434;22;20235;-90
2024/04/24 05:20:33;;;;;;;11.63;1.40;;;3.50;99.90;;;;;;6338017;22;19999;-90
2024/04/24 05:23:00;;;;;;;7.85;1.73;;;3.50;99.90;;;;;;6336960;22;19992;-90
2024/04/24 05:25:31;;;;;;;11.15;2.08;;;3.40;99.90;;;;;;6336953;22;20079;-90
2024/04/24 05:30:42;;;;;;;11.35;2.13;;;3.50;99.90;;;;;;6378721;22;20063;-90
2024/04/24 05:33:07;;;;;;;11.77;1.30;;;3.40;99.90;;;;;;6338604;22;20006;-89
2024/04/24 05:35:33;;;;;;;12.68;1.52;;;3.40;99.90;;;;;;6338253;22;20424;-89
2024/04/24 05:37:59;;;;;;;11.10;1.50;;;3.40;99.90;;;;;;6334199;22;20068;-89
2024/04/24 05:40:24;;;;;;;7.65;1.80;;;3.40;99.90;;;;;;6376825;22;19999;-89
2024/04/24 05:42:50;;;;;;;10.60;1.65;;;3.40;99.90;;;;;;6375951;22;19999;-89
2024/04/24 05:45:16;;;;;;;9.55;1.55;;;3.40;99.90;;;;;;6333293;22;20050;-91
2024/04/24 05:47:41;;;;;;;6.85;1.08;;;3.40;99.90;;;;;;6334190;22;20014;-89
2024/04/24 05:50:07;;;;;;;10.88;1.40;;;3.40;99.90;;;;;;6333823;22;19999;-89
2024/04/24 05:52:33;;;;;;;7.07;1.15;;;3.40;99.90;;;;;;6333805;22;19999;-88
2024/04/24 05:54:58;;;;;;;9.82;1.50;;;3.40;99.90;;;;;;6334576;22;20006;-89
2024/04/24 05:57:24;;;;;;;10.57;1.77;;;3.40;99.90;;;;;;6334142;22;20011;-90
2024/04/24 05:59:50;;;;;;;7.43;1.30;;;3.30;99.90;;;;;;6334174;22;19995;-88
2024/04/24 06:02:16;;;;;;;14.02;2.08;;;3.40;99.90;;;;;;6333320;22;19999;-90
2024/04/24 06:04:41;;;;;;;11.00;1.90;;;3.40;99.90;;;;;;6334846;22;20000;-91
2024/04/24 06:07:07;;;;;;;6.30;1.73;;;3.40;99.90;;;;;;6334725;22;19999;-90
2024/04/24 06:09:33;;;;;;;11.88;1.75;;;3.40;99.90;;;;;;6334926;22;20075;-90
2024/04/24 06:11:59;;;;;;;12.15;2.47;;;3.40;99.90;;;;;;6334940;22;20031;-90
2024/04/24 06:14:25;;;;;;;13.45;1.48;;;3.40;99.90;;;;;;6335428;22;20403;-90
2024/04/24 06:16:51;;;;;;;11.38;2.20;;;3.50;99.90;;;;;;6333870;22;19995;-91
2024/04/24 06:19:17;;;;;;;10.30;1.55;;;3.50;99.90;;;;;;6332904;22;20063;-89
2024/04/24 06:21:43;;;;;;;10.45;1.58;;;3.50;99.90;;;;;;6332364;22;19991;-89
2024/04/24 06:24:08;;;;;;;14.93;1.42;;;3.60;99.90;;;;;;6332639;22;20009;-90
2024/04/24 06:26:35;;;;;;;9.10;2.28;;;3.50;99.90;;;;;;6332800;22;19999;-89
2024/04/24 06:29:00;;;;;;;7.05;1.13;;;3.60;99.90;;;;;;6332587;22;20414;-90
2024/04/24 06:31:26;;;;;;;9.55;1.75;;;3.60;99.90;;;;;;6333711;22;20011;-89
2024/04/24 06:33:53;;;;;;;10.85;1.30;;;3.70;99.90;;;;;;6332708;22;19999;-89
2024/04/24 06:36:19;;;;;;;9.45;1.40;;;3.70;99.90;;;;;;6332828;22;20045;-90
2024/04/24 06:38:45;;;;;;;11.85;1.55;;;3.70;99.90;;;;;;6333341;22;20414;-90
2024/04/24 06:41:14;;;;;;;8.13;1.65;;;3.70;99.90;;;;;;6333996;22;19995;-89
2024/04/24 06:43:40;;;;;;;13.00;1.58;;;3.70;99.90;;;;;;6334048;22;19995;-90
2024/04/24 06:46:06;;;;;;;17.70;1.55;;;3.70;99.90;;;;;;6332787;22;20028;-91
2024/04/24 06:48:32;;;;;;;8.48;1.20;;;3.70;99.90;;;;;;6333983;22;20626;-90
2024/04/24 06:51:01;;;;;;;13.20;1.77;;;3.80;99.90;;;;;;6334243;22;19991;-91
2024/04/24 06:53:30;;;;;;;14.93;2.97;;;3.80;99.90;;;;;;6333689;22;19999;-91
2024/04/24 06:56:04;;;;;;;13.25;1.60;;;3.90;99.90;;;;;;6332627;22;19999;-89
2024/04/24 06:58:37;;;;;;;9.20;1.80;;;4.00;99.90;;;;;;6333082;22;20011;-90
2024/04/24 07:01:03;;;;;;;9.90;1.20;;;4.00;99.90;;;;;;6333091;22;20027;-91
2024/04/24 07:03:30;;;;;;;14.60;1.60;;;4.10;99.90;;;;;;6333382;22;19995;-90
2024/04/24 07:05:56;;;;;;;6.95;1.50;;;4.20;99.90;;;;;;6333125;22;19999;-92
2024/04/24 07:08:23;;;;;;;9.40;1.67;;;4.20;99.90;;;;;;6332598;22;19999;-90
2024/04/24 07:10:51;;;;;;;10.25;1.75;;;4.40;99.90;;;;;;6333920;22;20302;-90
2024/04/24 07:13:19;;;;;;;9.20;2.05;;;4.40;99.90;;;;;;6333114;22;20007;-91
2024/04/24 07:15:45;;;;;;;12.02;1.63;;;4.50;99.90;;;;;;6334464;22;19995;-88
2024/04/24 07:18:11;;;;;;;3.13;1.02;;;4.60;99.90;;;;;;6334004;22;20003;-88
2024/04/24 07:20:36;;;;;;;13.98;1.55;;;4.70;99.90;;;;;;6335300;22;20003;-90
2024/04/24 07:23:02;;;;;;;14.65;1.50;;;4.80;99.90;;;;;;6336555;22;20003;-91
2024/04/24 07:25:28;;;;;;;8.30;1.30;;;4.90;99.90;;;;;;6336003;22;19999;-89
2024/04/24 07:27:53;;;;;;;7.75;1.40;;;5.10;99.90;;;;;;6335304;22;20002;-88
2024/04/24 07:30:22;;;;;;;6.53;1.27;;;5.10;99.90;;;;;;6332593;22;20407;-89
2024/04/24 07:32:48;;;;;;;9.70;1.45;;;5.20;99.90;;;;;;6376314;22;20000;-88
2024/04/24 07:35:15;;;;;;;8.43;1.27;;;5.20;99.90;;;;;;6332585;22;20003;-89
2024/04/24 07:37:40;;;;;;;7.75;1.35;;;5.30;99.90;;;;;;6333556;22;20002;-88
2024/04/24 07:40:07;;;;;;;17.58;1.77;;;5.30;99.90;;;;;;6331329;22;20027;-90
2024/04/24 07:42:32;;;;;;;6.45;1.67;;;5.30;99.90;;;;;;6333271;22;20013;-89
2024/04/24 07:44:58;;;;;;;13.70;3.33;;;5.40;99.90;;;;;;6334334;22;19995;-89
2024/04/24 07:47:24;;;;;;;5.95;1.10;;;5.50;99.90;;;;;;6334083;22;20345;-90
2024/04/24 07:49:49;;;;;;;11.65;1.95;;;5.50;99.90;;;;;;6330731;22;20478;-90
2024/04/24 07:52:15;;;;;;;12.77;1.60;;;5.60;99.90;;;;;;6331656;22;19995;-89
2024/04/24 07:54:42;;;;;;;10.05;1.60;;;5.70;99.90;;;;;;6335156;22;20005;-88
2024/04/24 07:57:07;;;;;;;9.40;1.85;;;5.80;99.90;;;;;;6334530;22;19995;-89
2024/04/24 07:59:33;;;;;;;8.90;1.55;;;5.90;99.90;;;;;;6334967;22;19999;-88
2024/04/24 08:01:59;;;;;;;5.97;1.33;;;5.90;99.90;;;;;;6335172;22;20006;-88
2024/04/24 08:04:24;;;;;;;6.88;1.35;;;6.00;99.90;;;;;;6334754;22;20421;-90
2024/04/24 08:06:50;;;;;;;7.60;1.85;;;6.00;99.90;;;;;;6334673;22;19995;-89
2024/04/24 08:09:17;;;;;;;6.07;1.30;;;6.10;99.90;;;;;;6334735;22;20013;-89
2024/04/24 08:11:43;;;;;;;11.73;1.52;;;6.10;99.90;;;;;;6334208;22;20016;-88
2024/04/24 08:14:08;;;;;;;10.57;1.98;;;6.20;99.90;;;;;;6332585;22;20003;-90
2024/04/24 08:16:34;;;;;;;9.15;1.45;;;6.30;99.90;;;;;;6333093;22;20028;-90
2024/04/24 08:19:00;;;;;;;8.77;1.30;;;6.30;99.90;;;;;;6333368;22;19996;-89
2024/04/24 08:21:28;;;;;;;8.18;2.53;;;6.40;99.90;;;;;;6331873;22;20075;-90
2024/04/24 08:23:54;;;;;;;9.52;1.45;;;6.50;99.90;;;;;;6333040;22;20445;-89
2024/04/24 08:26:20;;;;;;;5.45;1.40;;;6.50;99.90;;;;;;6375245;22;19999;-90
2024/04/24 08:28:45;;;;;;;9.80;1.30;;;6.60;99.90;;;;;;6332657;22;20422;-91
2024/04/24 08:31:11;;;;;;;10.02;1.60;;;6.70;99.90;;;;;;6332396;22;20040;-90
2024/04/24 08:33:37;;;;;;;4.43;1.05;;;6.70;99.90;;;;;;6332447;22;20426;-89
2024/04/24 08:36:13;;;;;;;7.25;1.13;;;6.80;99.90;;;;;;6333051;22;20105;-92
2024/04/24 08:38:39;;;;;;;12.93;1.75;;;6.80;99.60;;;;;;6332921;22;19995;-91
2024/04/24 08:41:08;;;;;;;6.50;1.65;;;6.90;98.50;;;;;;6333151;22;19995;-90
2024/04/24 08:43:40;;;;;;;9.27;1.20;;;6.90;98.10;;;;;;6333141;22;20003;-90
2024/04/24 08:46:08;;;;;;;5.90;1.20;;;7.00;96.80;;;;;;6332870;22;20007;-88
2024/04/24 08:48:41;;;;;;;4.13;0.88;;;7.00;96.00;;;;;;6333695;22;20019;-89
2024/04/24 08:51:11;;;;;;;4.43;1.35;;;7.00;94.70;;;;;;6376239;22;20007;-89
2024/04/24 08:53:48;;;;;;;6.25;1.20;;;7.10;94.10;;;;;;6333856;22;19995;-88
2024/04/24 08:56:18;;;;;;;7.15;1.17;;;7.10;93.50;;;;;;6334110;22;19991;-91
2024/04/24 08:58:49;;;;;;;5.72;1.08;;;7.20;93.20;;;;;;6332448;22;19999;-90
2024/04/24 09:01:20;;;;;;;6.70;1.10;;;7.30;93.10;;;;;;6332562;22;20302;-89
2024/04/24 09:03:52;;;;;;;3.15;0.80;;;7.40;92.70;;;;;;6333201;22;20090;-90
2024/04/24 09:06:20;;;;;;;5.57;1.02;;;7.50;92.30;;;;;;6336276;22;19999;-88
2024/04/24 09:08:46;;;;;;;4.97;2.60;;;7.70;91.50;;;;;;6334166;22;20493;-89
2024/04/24 09:11:12;;;;;;;4.65;0.80;;;7.70;91.00;;;;;;6335353;22;20273;-89
2024/04/24 09:13:38;;;;;;;4.55;1.60;;;7.70;90.60;;;;;;6335427;22;20020;-89
2024/04/24 09:16:07;;;;;;;4.30;0.82;;;7.70;90.50;;;;;;6335707;22;20002;-89
2024/04/24 09:18:32;;;;;;;3.67;0.63;;;7.70;90.30;;;;;;6335843;22;20030;-89
2024/04/24 09:20:59;;;;;;;7.25;1.50;;;7.70;90.00;;;;;;6335239;22;20006;-89
2024/04/24 09:23:25;;;;;;;11.23;1.80;;;7.70;89.60;;;;;;6335322;22;20001;-89
2024/04/24 09:25:51;;;;;;;6.88;1.23;;;7.70;89.40;;;;;;6335138;22;20437;-90
2024/04/24 09:28:19;;;;;;;5.88;1.50;;;7.60;89.40;;;;;;6337725;22;20075;-89
2024/04/24 09:30:44;;;;;;;7.00;1.30;;;7.60;89.60;;;;;;6335311;22;19995;-90
2024/04/24 09:33:11;;;;;;;5.70;1.05;;;7.50;89.70;;;;;;6335885;22;20006;-92
2024/04/24 09:35:38;;;;;;;6.22;1.10;;;7.40;90.00;;;;;;6335827;22;19995;-94
2024/04/24 09:38:07;;;;;;;8.32;1.45;;;7.40;90.60;;;;;;6379098;22;20304;-93
2024/04/24 09:40:34;;;;;;;8.43;1.25;;;7.50;90.60;;;;;;6336033;22;19999;-89
2024/04/24 09:43:00;;;;;;;8.70;1.35;;;7.50;90.70;;;;;;6335920;22;20010;-93
2024/04/24 09:45:29;;;;;;;5.15;1.05;;;7.50;90.80;;;;;;6335798;22;19995;-92
2024/04/24 09:47:55;;;;;;;5.38;1.25;;;7.60;91.00;;;;;;6336106;22;20325;-91
2024/04/24 09:50:20;;;;;;;8.60;1.67;;;7.60;91.00;;;;;;6335086;22;20003;-90
2024/04/24 09:52:47;;;;;;;5.38;1.33;;;7.70;90.90;;;;;;6378926;22;20433;-90
2024/04/24 09:55:14;;;;;;;5.20;1.13;;;7.70;90.60;;;;;;6334537;22;20458;-89
2024/04/24 09:57:43;;;;;;;9.52;1.20;;;7.70;90.40;;;;;;6334450;22;19995;-90
2024/04/24 10:00:12;;;;;;;5.95;1.40;;;7.70;90.40;;;;;;6335564;22;20019;-89
2024/04/24 10:02:46;;;;;;;4.50;0.90;;;7.70;90.40;;;;;;6335751;22;20010;-88
2024/04/24 10:05:23;;;;;;;6.45;1.52;;;7.80;90.20;;;;;;6336677;22;20013;-90
2024/04/24 10:08:11;;;;;;;4.20;1.00;;;7.90;90.10;;;;;;6336189;22;19995;-89
2024/04/24 10:10:41;;;;;;;10.73;1.23;;;8.00;89.90;;;;;;6335152;22;20007;-88
2024/04/24 10:13:08;;;;;;;6.43;1.23;;;8.10;89.50;;;;;;6375445;22;20077;-90
2024/04/24 10:15:44;;;;;;;5.55;1.08;;;8.20;89.10;;;;;;6334281;22;20011;-90
2024/04/24 10:18:10;;;;;;;3.03;0.98;;;8.40;89.00;;;;;;6376922;22;20007;-91
2024/04/24 10:20:40;;;;;;;6.28;0.95;;;8.40;88.30;;;;;;6334976;22;20076;-89
2024/04/24 10:23:07;;;;;;;13.63;1.67;;;8.40;87.40;;;;;;6334527;22;20422;-90
2024/04/24 10:25:34;;;;;;;3.53;1.45;;;8.50;87.20;;;;;;6335029;22;20010;-89
2024/04/24 10:28:02;;;;;;;5.20;1.20;;;8.50;86.50;;;;;;6334471;22;20418;-90
2024/04/24 10:30:30;;;;;;;3.28;0.98;;;8.60;85.70;;;;;;6334755;22;19995;-90
2024/04/24 10:32:56;;;;;;;4.05;0.88;;;8.90;85.60;;;;;;6334842;22;19995;-89
2024/04/24 10:35:25;;;;;;;7.07;1.92;;;9.10;85.00;;;;;;6335004;22;20006;-89
2024/04/24 10:37:57;;;;;;;11.63;1.25;;;9.30;84.10;;;;;;6339453;22;19995;-88
2024/04/24 10:40:27;;;;;;;2.70;0.95;;;9.40;83.20;;;;;;6377821;22;20003;-88
2024/04/24 10:43:05;;;;;;;3.97;1.15;;;9.60;82.70;;;;;;6335259;22;20077;-89
2024/04/24 10:45:40;;;;;;;8.55;2.35;;;9.70;82.30;;;;;;6335161;22;19999;-89
2024/04/24 10:48:10;;;;;;;2.70;0.82;;;9.70;81.80;;;;;;6378533;22;19999;-89
2024/04/24 10:50:38;;;;;;;5.45;1.02;;;9.70;81.70;;;;;;6378381;22;19999;-89
2024/04/24 10:53:04;;;;;;;4.03;1.10;;;10.00;81.70;;;;;;6334841;22;19999;-89
2024/04/24 10:55:30;;;;;;;5.63;1.02;;;10.30;81.20;;;;;;6334513;22;20009;-88
2024/04/24 10:57:56;;;;;;;8.88;0.95;;;10.60;79.80;;;;;;6334424;22;19999;-89
2024/04/24 11:00:32;;;;;;;8.15;1.70;;;10.70;78.40;;;;;;6334268;22;20004;-89
2024/04/24 11:02:58;;;;;;;4.05;0.98;;;10.60;77.50;;;;;;6334720;22;20366;-89
2024/04/24 11:05:24;;;;;;;3.45;0.85;;;10.60;77.00;;;;;;6333733;22;19991;-89
2024/04/24 11:08:01;;;;;;;4.40;0.80;;;10.50;76.80;;;;;;6334074;22;20011;-89
2024/04/24 11:10:28;;;;;;;8.55;1.23;;;10.40;76.30;;;;;;6334386;22;19995;-89
2024/04/24 11:12:54;;;;;;;7.40;1.45;;;10.30;76.60;;;;;;6334297;22;20000;-90
2024/04/24 11:15:21;;;;;;;4.28;0.82;;;10.20;76.30;;;;;;6334697;22;20003;-89
2024/04/24 11:17:48;;;;;;;7.75;1.10;;;10.20;76.50;;;;;;6334757;22;20010;-89
2024/04/24 11:20:24;;;;;;;6.05;1.02;;;10.20;76.50;;;;;;6335252;22;19998;-89
2024/04/24 11:22:50;;;;;;;5.90;1.55;;;10.20;76.90;;;;;;6378150;22;20020;-88
2024/04/24 11:25:20;;;;;;;2.92;0.63;;;10.20;76.50;;;;;;6335846;22;20007;-88
2024/04/24 11:27:46;;;;;;;5.88;1.20;;;10.10;76.10;;;;;;6334989;22;20002;-88
2024/04/24 11:30:19;;;;;;;4.88;0.93;;;10.00;76.00;;;;;;6375801;22;20063;-89
2024/04/24 11:32:49;;;;;;;9.90;1.35;;;10.00;75.80;;;;;;6333695;22;19995;-89
2024/04/24 11:35:16;;;;;;;5.40;1.23;;;9.80;75.50;;;;;;6334555;22;20446;-90
2024/04/24 11:37:43;;;;;;;3.17;1.10;;;9.70;75.90;;;;;;6333896;22;19999;-89
2024/04/24 11:40:12;;;;;;;4.43;1.30;;;9.70;76.20;;;;;;6333524;22;19991;-89
2024/04/24 11:42:42;;;;;;;9.88;2.10;;;9.60;76.50;;;;;;6333249;22;20058;-90
2024/04/24 11:45:08;;;;;;;7.93;1.52;;;9.60;76.70;;;;;;6332957;22;19999;-88
2024/04/24 11:47:34;;;;;;;4.43;1.35;;;9.60;76.70;;;;;;6332336;22;20014;-90
2024/04/24 11:50:00;;;;;;;6.93;1.23;;;9.80;76.70;;;;;;6334187;22;20006;-90
2024/04/24 11:52:36;;;;;;;6.70;1.00;;;10.00;77.00;;;;;;6333030;22;20002;-89
2024/04/24 11:55:06;;;;;;;4.47;0.90;;;10.20;76.20;;;;;;6334289;22;20071;-88
2024/04/24 11:57:39;;;;;;;6.60;1.27;;;10.40;75.60;;;;;;6333045;22;19999;-90
2024/04/24 12:00:08;;;;;;;2.03;1.15;;;10.50;75.10;;;;;;6333840;22;20337;-90
2024/04/24 12:02:34;;;;;;;2.65;0.80;;;10.70;74.80;;;;;;6333529;22;20023;-89
2024/04/24 12:05:06;;;;;;;3.30;0.90;;;10.80;74.40;;;;;;6333914;22;20433;-89
2024/04/24 12:07:33;;;;;;;7.45;1.08;;;10.90;74.20;;;;;;6333780;22;20635;-90
2024/04/24 12:09:59;;;;;;;4.72;0.95;;;10.90;74.00;;;;;;6332886;22;20027;-90
2024/04/24 12:12:25;;;;;;;4.72;0.95;;;10.90;74.00;;;;;;6333140;22;20075;-89
2024/04/24 12:14:55;;;;;;;2.88;0.80;;;10.90;74.20;;;;;;6376040;22;20017;-89
2024/04/24 12:17:21;;;;;;;3.25;1.00;;;10.80;74.00;;;;;;6377139;22;20003;-89
2024/04/24 12:19:47;;;;;;;4.72;1.00;;;10.90;74.00;;;;;;6333595;22;20038;-90
2024/04/24 12:22:13;;;;;;;4.82;1.10;;;10.90;73.50;;;;;;6332552;22;20015;-89
2024/04/24 12:24:39;;;;;;;5.28;1.20;;;10.80;73.00;;;;;;6330613;22;20003;-90
2024/04/24 12:27:08;;;;;;;7.82;1.50;;;10.80;73.30;;;;;;6332889;22;19999;-89
2024/04/24 12:29:36;;;;;;;5.57;1.25;;;11.00;73.70;;;;;;6333052;22;20426;-89
2024/04/24 12:32:03;;;;;;;3.78;1.10;;;11.10;74.10;;;;;;6333069;22;20305;-89
2024/04/24 12:34:29;;;;;;;6.82;1.10;;;11.10;74.00;;;;;;6332018;22;20003;-90
2024/04/24 12:36:54;;;;;;;6.30;1.92;;;11.20;73.90;;;;;;6333385;22;19992;-91
2024/04/24 12:39:23;;;;;;;6.50;1.30;;;11.20;73.90;;;;;;6333571;22;20394;-90
2024/04/24 12:41:50;;;;;;;7.22;1.25;;;11.20;73.80;;;;;;6333962;22;20002;-89
2024/04/24 12:44:19;;;;;;;8.05;1.20;;;11.20;73.80;;;;;;6336490;22;19995;-90
2024/04/24 12:46:45;;;;;;;5.90;1.40;;;11.20;73.90;;;;;;6337931;22;20011;-90
2024/04/24 12:49:10;;;;;;;3.83;1.10;;;11.20;73.70;;;;;;6337945;22;20003;-90
2024/04/24 12:51:38;;;;;;;4.97;1.40;;;11.10;73.70;;;;;;6336657;22;19995;-90
2024/04/24 12:54:04;;;;;;;7.32;1.65;;;11.00;73.70;;;;;;6336029;22;20007;-90